Strona główna
METAR-TAF:

METAR-TAF

Lotnisko :

Baza lotnicza Alcantarilla

Murcja, Hiszpania

Szerokość geograficzna: 37-57N, Długość geograficzna: 001-14W, wysokość: 75 m

Aktualna obserwacja pogody

Raport powstał 1 godzina i 19 minut temu, godzina 18:00 UTC
Wiatr 11 kt od południowy wschód, zmienny między wschód i południowo-południowy wschód
Temperatura 32°C
Wilgotność 32%
Ciśnienie 1013 hPa
Widzialność 10 km lub więcej
Brak chmur poniżej 1500 m i brak chmur cumulonimbus

METAR: LERI 181800Z 13011KT 100V160 CAVOK 32/13 Q1013 NOSIG

czas: 21:19 (19:19 UTC)

Prognoza

Raport powstał 5 godziny i 19 minut temu, godzina 14:00 UTC
Prognoza ważna od 18 godzina 15 UTC do 18 godzina 24 UTC
Wiatr 10 kt od południowy wschód
Widzialność 10 km lub więcej
Mało chmury na wysokości 4000 ft
Stopniowe zmiany
od 18 godzina 20 UTC do 18 godzina 23 UTC
Wiatr 2 kt z kierunków zmiennych

TAF: LERI 181400Z 1815/1824 13010KT 9999 FEW040 BECMG 1820/1823 VRB02KT

Obserwacja i prognoza pogody dla ponad 4000 lotnisk (raport METAR i TAF).

Dostępne stacje oznaczono żółtymi i czerwonymi punktami na mapie.

Najedź kursorem aby zobaczyć nazwę stacji.

Kliknij aby zobaczyć obserwacje i prognozy pogody.

Aby zmienić mapę: kliknij na zielony przycisk z czarnym krzyżykiem, aby powiększyć; na zielony przycisk z myślnikiem, aby pomniejszyć; na zielone strzałki, aby przejść do map sąsiednich.


METAR-TAF: